sensor_id;sensor_type;location;lat;lon;timestamp;pressure;altitude;pressure_sealevel;temperature;humidity
68712;BME280;55690;51.566;19.198;2022-12-18T00:02:41;103206.96;;;-3.98;100.00
68712;BME280;55690;51.566;19.198;2022-12-18T00:06:47;103200.76;;;-3.99;100.00
68712;BME280;55690;51.566;19.198;2022-12-18T00:10:54;103209.74;;;-3.94;100.00
68712;BME280;55690;51.566;19.198;2022-12-18T00:15:00;103184.48;;;-4.13;100.00
68712;BME280;55690;51.566;19.198;2022-12-18T00:19:06;103203.42;;;-3.99;100.00
68712;BME280;55690;51.566;19.198;2022-12-18T00:23:12;103208.88;;;-3.93;100.00
68712;BME280;55690;51.566;19.198;2022-12-18T00:27:18;103218.68;;;-3.89;100.00
68712;BME280;55690;51.566;19.198;2022-12-18T00:31:25;103216.03;;;-3.90;100.00
68712;BME280;55690;51.566;19.198;2022-12-18T00:35:31;103232.81;;;-3.91;100.00
68712;BME280;55690;51.566;19.198;2022-12-18T00:39:40;103234.40;;;-3.98;100.00
68712;BME280;55690;51.566;19.198;2022-12-18T00:43:43;103236.93;;;-4.03;100.00
68712;BME280;55690;51.566;19.198;2022-12-18T00:47:50;103247.72;;;-3.96;100.00
68712;BME280;55690;51.566;19.198;2022-12-18T00:51:56;103246.07;;;-3.91;100.00
68712;BME280;55690;51.566;19.198;2022-12-18T00:56:02;103257.72;;;-3.85;100.00
68712;BME280;55690;51.566;19.198;2022-12-18T01:00:12;103254.84;;;-3.94;100.00
68712;BME280;55690;51.566;19.198;2022-12-18T01:04:14;103262.09;;;-3.87;100.00
68712;BME280;55690;51.566;19.198;2022-12-18T01:08:20;103256.58;;;-3.96;100.00
68712;BME280;55690;51.566;19.198;2022-12-18T01:12:26;103258.81;;;-4.11;100.00
68712;BME280;55690;51.566;19.198;2022-12-18T01:16:33;103257.18;;;-4.06;100.00
68712;BME280;55690;51.566;19.198;2022-12-18T01:20:39;103269.59;;;-4.05;100.00
68712;BME280;55690;51.566;19.198;2022-12-18T01:24:45;103280.30;;;-4.02;100.00
68712;BME280;55690;51.566;19.198;2022-12-18T01:28:53;103282.34;;;-3.92;100.00
68712;BME280;55690;51.566;19.198;2022-12-18T01:32:57;103286.73;;;-3.92;100.00
68712;BME280;55690;51.566;19.198;2022-12-18T01:37:05;103286.45;;;-4.03;100.00
68712;BME280;55690;51.566;19.198;2022-12-18T01:41:11;103281.19;;;-4.02;100.00
68712;BME280;55690;51.566;19.198;2022-12-18T01:45:24;103298.78;;;-4.05;100.00
68712;BME280;55690;51.566;19.198;2022-12-18T01:49:26;103304.30;;;-3.97;100.00
68712;BME280;55690;51.566;19.198;2022-12-18T01:53:29;103299.59;;;-4.08;100.00
68712;BME280;55690;51.566;19.198;2022-12-18T01:57:36;103299.02;;;-3.96;100.00
68712;BME280;55690;51.566;19.198;2022-12-18T02:01:41;103306.14;;;-3.95;100.00
68712;BME280;55690;51.566;19.198;2022-12-18T02:06:03;103310.80;;;-3.85;100.00
68712;BME280;55690;51.566;19.198;2022-12-18T02:10:07;103323.26;;;-3.82;100.00
68712;BME280;55690;51.566;19.198;2022-12-18T02:18:32;103314.10;;;-3.95;100.00
68712;BME280;55690;51.566;19.198;2022-12-18T02:26:58;103322.02;;;-3.96;100.00
68712;BME280;55690;51.566;19.198;2022-12-18T02:30:59;103324.46;;;-4.04;100.00
68712;BME280;55690;51.566;19.198;2022-12-18T02:35:05;103325.41;;;-4.02;100.00
68712;BME280;55690;51.566;19.198;2022-12-18T02:39:11;103334.64;;;-4.19;100.00
68712;BME280;55690;51.566;19.198;2022-12-18T02:43:15;103342.28;;;-4.30;100.00
68712;BME280;55690;51.566;19.198;2022-12-18T02:47:23;103343.59;;;-4.16;100.00
68712;BME280;55690;51.566;19.198;2022-12-18T02:51:44;103355.88;;;-4.19;100.00
68712;BME280;55690;51.566;19.198;2022-12-18T03:00:00;103377.00;;;-4.22;100.00
68712;BME280;55690;51.566;19.198;2022-12-18T03:04:12;103374.29;;;-4.24;100.00
68712;BME280;55690;51.566;19.198;2022-12-18T03:08:23;103383.30;;;-4.19;100.00
68712;BME280;55690;51.566;19.198;2022-12-18T03:12:33;103396.33;;;-4.26;100.00
68712;BME280;55690;51.566;19.198;2022-12-18T03:16:36;103387.39;;;-4.30;100.00
68712;BME280;55690;51.566;19.198;2022-12-18T03:20:41;103401.35;;;-4.37;100.00
68712;BME280;55690;51.566;19.198;2022-12-18T03:24:46;103402.11;;;-4.41;100.00
68712;BME280;55690;51.566;19.198;2022-12-18T03:28:52;103411.72;;;-4.45;100.00
68712;BME280;55690;51.566;19.198;2022-12-18T03:37:09;103419.86;;;-4.39;100.00
68712;BME280;55690;51.566;19.198;2022-12-18T03:45:32;103431.99;;;-4.17;100.00
68712;BME280;55690;51.566;19.198;2022-12-18T03:53:59;103438.24;;;-4.15;100.00
68712;BME280;55690;51.566;19.198;2022-12-18T03:58:04;103441.71;;;-4.17;100.00
68712;BME280;55690;51.566;19.198;2022-12-18T04:02:08;103439.72;;;-4.24;100.00
68712;BME280;55690;51.566;19.198;2022-12-18T04:06:11;103446.92;;;-4.20;100.00
68712;BME280;55690;51.566;19.198;2022-12-18T04:10:15;103457.49;;;-4.22;100.00
68712;BME280;55690;51.566;19.198;2022-12-18T04:14:18;103460.14;;;-4.22;100.00
68712;BME280;55690;51.566;19.198;2022-12-18T04:18:19;103457.75;;;-4.43;100.00
68712;BME280;55690;51.566;19.198;2022-12-18T04:22:22;103468.36;;;-4.43;100.00
68712;BME280;55690;51.566;19.198;2022-12-18T04:26:23;103467.37;;;-4.46;100.00
68712;BME280;55690;51.566;19.198;2022-12-18T04:30:26;103469.41;;;-4.38;100.00
68712;BME280;55690;51.566;19.198;2022-12-18T04:34:28;103486.83;;;-4.46;100.00
68712;BME280;55690;51.566;19.198;2022-12-18T04:38:32;103482.38;;;-4.47;100.00
68712;BME280;55690;51.566;19.198;2022-12-18T04:42:34;103495.03;;;-4.38;100.00
68712;BME280;55690;51.566;19.198;2022-12-18T04:46:36;103493.29;;;-4.38;100.00
68712;BME280;55690;51.566;19.198;2022-12-18T04:50:38;103510.00;;;-4.40;100.00
68712;BME280;55690;51.566;19.198;2022-12-18T04:54:40;103516.05;;;-4.44;100.00
68712;BME280;55690;51.566;19.198;2022-12-18T04:58:43;103510.40;;;-4.55;100.00
68712;BME280;55690;51.566;19.198;2022-12-18T05:02:46;103508.95;;;-4.45;100.00
68712;BME280;55690;51.566;19.198;2022-12-18T05:06:49;103509.70;;;-4.49;100.00
68712;BME280;55690;51.566;19.198;2022-12-18T05:10:59;103499.78;;;-4.55;100.00
68712;BME280;55690;51.566;19.198;2022-12-18T05:15:01;103509.70;;;-4.49;100.00
68712;BME280;55690;51.566;19.198;2022-12-18T05:19:05;103508.64;;;-4.54;100.00
68712;BME280;55690;51.566;19.198;2022-12-18T05:23:07;103502.78;;;-4.71;100.00
68712;BME280;55690;51.566;19.198;2022-12-18T05:27:09;103516.14;;;-4.68;100.00
68712;BME280;55690;51.566;19.198;2022-12-18T05:31:11;103521.59;;;-4.63;100.00
68712;BME280;55690;51.566;19.198;2022-12-18T05:35:13;103519.64;;;-4.69;100.00
68712;BME280;55690;51.566;19.198;2022-12-18T05:39:15;103530.60;;;-4.85;100.00
68712;BME280;55690;51.566;19.198;2022-12-18T05:43:19;103558.80;;;-4.87;100.00
68712;BME280;55690;51.566;19.198;2022-12-18T05:47:23;103545.51;;;-4.62;100.00
68712;BME280;55690;51.566;19.198;2022-12-18T05:51:29;103556.07;;;-4.63;100.00
68712;BME280;55690;51.566;19.198;2022-12-18T05:55:35;103561.09;;;-4.71;100.00
68712;BME280;55690;51.566;19.198;2022-12-18T05:59:41;103559.36;;;-4.71;100.00
68712;BME280;55690;51.566;19.198;2022-12-18T06:03:47;103566.62;;;-4.65;100.00
68712;BME280;55690;51.566;19.198;2022-12-18T06:07:53;103572.13;;;-4.59;100.00
68712;BME280;55690;51.566;19.198;2022-12-18T06:11:59;103585.98;;;-4.67;100.00
68712;BME280;55690;51.566;19.198;2022-12-18T06:16:06;103592.12;;;-4.69;100.00
68712;BME280;55690;51.566;19.198;2022-12-18T06:20:13;103599.33;;;-4.64;100.00
68712;BME280;55690;51.566;19.198;2022-12-18T06:24:18;103598.17;;;-4.73;100.00
68712;BME280;55690;51.566;19.198;2022-12-18T06:28:24;103605.03;;;-4.79;100.00
68712;BME280;55690;51.566;19.198;2022-12-18T06:32:30;103611.54;;;-4.70;100.00
68712;BME280;55690;51.566;19.198;2022-12-18T06:36:37;103618.29;;;-4.79;100.00
68712;BME280;55690;51.566;19.198;2022-12-18T06:40:42;103625.00;;;-4.89;100.00
68712;BME280;55690;51.566;19.198;2022-12-18T06:44:49;103637.24;;;-4.92;100.00
68712;BME280;55690;51.566;19.198;2022-12-18T06:48:55;103636.39;;;-4.91;100.00
68712;BME280;55690;51.566;19.198;2022-12-18T06:53:01;103648.18;;;-5.07;100.00
68712;BME280;55690;51.566;19.198;2022-12-18T06:57:08;103652.47;;;-5.11;100.00
68712;BME280;55690;51.566;19.198;2022-12-18T07:01:14;103665.15;;;-5.02;100.00
68712;BME280;55690;51.566;19.198;2022-12-18T07:05:20;103656.80;;;-5.13;100.00
68712;BME280;55690;51.566;19.198;2022-12-18T07:09:26;103667.91;;;-4.99;100.00
68712;BME280;55690;51.566;19.198;2022-12-18T07:13:32;103674.11;;;-4.98;100.00
68712;BME280;55690;51.566;19.198;2022-12-18T07:17:38;103663.28;;;-5.05;100.00
68712;BME280;55690;51.566;19.198;2022-12-18T07:21:46;103696.57;;;-4.89;100.00
68712;BME280;55690;51.566;19.198;2022-12-18T07:25:50;103696.61;;;-4.87;100.00
68712;BME280;55690;51.566;19.198;2022-12-18T07:29:57;103696.45;;;-4.92;100.00
68712;BME280;55690;51.566;19.198;2022-12-18T07:34:03;103701.08;;;-4.86;100.00
68712;BME280;55690;51.566;19.198;2022-12-18T07:38:09;103707.84;;;-4.94;100.00
68712;BME280;55690;51.566;19.198;2022-12-18T07:42:16;103712.70;;;-4.83;100.00
68712;BME280;55690;51.566;19.198;2022-12-18T07:46:31;103710.27;;;-4.77;100.00
68712;BME280;55690;51.566;19.198;2022-12-18T07:50:33;103728.65;;;-4.81;100.00
68712;BME280;55690;51.566;19.198;2022-12-18T07:54:36;103727.49;;;-4.64;100.00
68712;BME280;55690;51.566;19.198;2022-12-18T07:58:42;103721.55;;;-4.57;100.00
68712;BME280;55690;51.566;19.198;2022-12-18T08:02:46;103727.88;;;-4.53;100.00
68712;BME280;55690;51.566;19.198;2022-12-18T08:06:53;103725.91;;;-4.59;100.00
68712;BME280;55690;51.566;19.198;2022-12-18T08:11:00;103734.53;;;-4.41;100.00
68712;BME280;55690;51.566;19.198;2022-12-18T08:15:06;103733.98;;;-4.56;100.00
68712;BME280;55690;51.566;19.198;2022-12-18T08:19:12;103734.77;;;-4.58;100.00
68712;BME280;55690;51.566;19.198;2022-12-18T08:23:18;103741.75;;;-4.37;100.00
68712;BME280;55690;51.566;19.198;2022-12-18T08:27:24;103742.32;;;-4.20;100.00
68712;BME280;55690;51.566;19.198;2022-12-18T08:31:31;103750.11;;;-4.24;100.00
68712;BME280;55690;51.566;19.198;2022-12-18T08:35:36;103751.87;;;-4.25;100.00
68712;BME280;55690;51.566;19.198;2022-12-18T08:39:42;103761.48;;;-4.03;100.00
68712;BME280;55690;51.566;19.198;2022-12-18T08:43:49;103755.86;;;-4.12;100.00
68712;BME280;55690;51.566;19.198;2022-12-18T08:48:03;103765.08;;;-4.26;100.00
68712;BME280;55690;51.566;19.198;2022-12-18T08:52:06;103775.17;;;-4.42;100.00
68712;BME280;55690;51.566;19.198;2022-12-18T08:56:08;103782.16;;;-4.44;100.00
68712;BME280;55690;51.566;19.198;2022-12-18T09:00:14;103792.15;;;-4.37;100.00
68712;BME280;55690;51.566;19.198;2022-12-18T09:04:19;103787.76;;;-4.36;100.00
68712;BME280;55690;51.566;19.198;2022-12-18T09:08:26;103797.88;;;-4.24;100.00
68712;BME280;55690;51.566;19.198;2022-12-18T09:12:34;103793.05;;;-4.36;100.00
68712;BME280;55690;51.566;19.198;2022-12-18T09:16:39;103802.87;;;-4.33;100.00
68712;BME280;55690;51.566;19.198;2022-12-18T09:20:44;103804.65;;;-4.32;100.00
68712;BME280;55690;51.566;19.198;2022-12-18T09:24:51;103809.20;;;-4.54;100.00
68712;BME280;55690;51.566;19.198;2022-12-18T09:28:56;103807.44;;;-4.53;100.00
68712;BME280;55690;51.566;19.198;2022-12-18T09:33:03;103815.92;;;-4.40;100.00
68712;BME280;55690;51.566;19.198;2022-12-18T09:37:09;103817.95;;;-4.31;100.00
68712;BME280;55690;51.566;19.198;2022-12-18T09:49:49;103798.72;;;-4.25;100.00
68712;BME280;55690;51.566;19.198;2022-12-18T10:02:24;103794.70;;;-4.14;100.00
68712;BME280;55690;51.566;19.198;2022-12-18T10:10:49;103804.05;;;-4.00;100.00
68712;BME280;55690;51.566;19.198;2022-12-18T10:15:01;103796.41;;;-3.91;100.00
68712;BME280;55690;51.566;19.198;2022-12-18T10:19:17;103793.54;;;-3.97;100.00
68712;BME280;55690;51.566;19.198;2022-12-18T10:23:33;103798.70;;;-4.02;100.00
68712;BME280;55690;51.566;19.198;2022-12-18T10:27:37;103793.45;;;-4.00;100.00
68712;BME280;55690;51.566;19.198;2022-12-18T10:31:43;103792.43;;;-4.04;100.00
68712;BME280;55690;51.566;19.198;2022-12-18T10:35:49;103795.69;;;-4.60;100.00
68712;BME280;55690;51.566;19.198;2022-12-18T10:44:14;103816.76;;;-4.41;100.00
68712;BME280;55690;51.566;19.198;2022-12-18T10:48:21;103815.26;;;-4.32;100.00
68712;BME280;55690;51.566;19.198;2022-12-18T10:52:26;103811.90;;;-4.52;100.00
68712;BME280;55690;51.566;19.198;2022-12-18T10:56:31;103822.05;;;-4.41;100.00
68712;BME280;55690;51.566;19.198;2022-12-18T11:00:36;103815.27;;;-4.56;100.00
68712;BME280;55690;51.566;19.198;2022-12-18T11:04:53;103812.63;;;-4.56;100.00
68712;BME280;55690;51.566;19.198;2022-12-18T11:09:02;103813.20;;;-4.41;100.00
68712;BME280;55690;51.566;19.198;2022-12-18T11:21:40;103804.20;;;-4.69;100.00
68712;BME280;55690;51.566;19.198;2022-12-18T11:25:50;103807.03;;;-4.64;100.00
68712;BME280;55690;51.566;19.198;2022-12-18T11:34:30;103802.43;;;-4.46;100.00
68712;BME280;55690;51.566;19.198;2022-12-18T11:42:45;103794.86;;;-4.35;100.00
68712;BME280;55690;51.566;19.198;2022-12-18T11:47:03;103803.02;;;-4.29;100.00
68712;BME280;55690;51.566;19.198;2022-12-18T11:51:05;103803.28;;;-4.21;100.00
68712;BME280;55690;51.566;19.198;2022-12-18T11:55:15;103805.13;;;-3.95;100.00
68712;BME280;55690;51.566;19.198;2022-12-18T11:59:30;103809.98;;;-3.82;100.00
68712;BME280;55690;51.566;19.198;2022-12-18T12:16:40;103812.63;;;-4.80;100.00
68712;BME280;55690;51.566;19.198;2022-12-18T12:24:54;103828.36;;;-4.61;100.00
68712;BME280;55690;51.566;19.198;2022-12-18T12:33:29;103837.24;;;-4.37;100.00
68712;BME280;55690;51.566;19.198;2022-12-18T12:41:45;103857.31;;;-4.19;100.00
68712;BME280;55690;51.566;19.198;2022-12-18T12:50:18;103867.84;;;-4.69;100.00
68712;BME280;55690;51.566;19.198;2022-12-18T12:54:24;103870.70;;;-4.40;100.00
68712;BME280;55690;51.566;19.198;2022-12-18T12:58:38;103868.48;;;-4.52;100.00
68712;BME280;55690;51.566;19.198;2022-12-18T13:02:56;103873.59;;;-4.34;100.00
68712;BME280;55690;51.566;19.198;2022-12-18T13:19:56;103867.86;;;-4.91;100.00
68712;BME280;55690;51.566;19.198;2022-12-18T13:28:15;103869.27;;;-4.54;100.00
68712;BME280;55690;51.566;19.198;2022-12-18T13:32:24;103874.88;;;-4.47;100.00
68712;BME280;55690;51.566;19.198;2022-12-18T13:36:29;103872.70;;;-4.57;100.00
68712;BME280;55690;51.566;19.198;2022-12-18T13:44:50;103894.20;;;-5.16;100.00
68712;BME280;55690;51.566;19.198;2022-12-18T13:49:00;103891.49;;;-5.18;100.00
68712;BME280;55690;51.566;19.198;2022-12-18T13:53:05;103893.91;;;-5.24;100.00
68712;BME280;55690;51.566;19.198;2022-12-18T14:01:23;103890.84;;;-5.12;100.00
68712;BME280;55690;51.566;19.198;2022-12-18T14:05:29;103894.77;;;-5.03;100.00
68712;BME280;55690;51.566;19.198;2022-12-18T14:09:39;103893.55;;;-5.11;100.00
68712;BME280;55690;51.566;19.198;2022-12-18T14:13:43;103892.16;;;-5.44;100.00
68712;BME280;55690;51.566;19.198;2022-12-18T14:17:50;103897.98;;;-5.32;100.00
68712;BME280;55690;51.566;19.198;2022-12-18T14:21:55;103897.46;;;-5.44;100.00
68712;BME280;55690;51.566;19.198;2022-12-18T14:26:19;103902.36;;;-5.53;100.00
68712;BME280;55690;51.566;19.198;2022-12-18T14:34:31;103897.46;;;-5.44;100.00
68712;BME280;55690;51.566;19.198;2022-12-18T14:38:38;103896.16;;;-5.75;100.00
68712;BME280;55690;51.566;19.198;2022-12-18T14:42:45;103907.33;;;-5.82;100.00
68712;BME280;55690;51.566;19.198;2022-12-18T14:46:53;103903.97;;;-5.78;100.00
68712;BME280;55690;51.566;19.198;2022-12-18T14:55:19;103919.92;;;-5.76;100.00
68712;BME280;55690;51.566;19.198;2022-12-18T14:59:26;103929.84;;;-5.91;100.00
68712;BME280;55690;51.566;19.198;2022-12-18T15:03:31;103932.98;;;-6.00;100.00
68712;BME280;55690;51.566;19.198;2022-12-18T15:07:43;103930.93;;;-5.86;100.00
68712;BME280;55690;51.566;19.198;2022-12-18T15:11:47;103934.05;;;-5.76;100.00
68712;BME280;55690;51.566;19.198;2022-12-18T15:15:52;103933.50;;;-5.68;100.00
68712;BME280;55690;51.566;19.198;2022-12-18T15:20:02;103933.36;;;-5.72;100.00
68712;BME280;55690;51.566;19.198;2022-12-18T15:32:31;103938.38;;;-5.78;100.00
68712;BME280;55690;51.566;19.198;2022-12-18T15:36:34;103941.34;;;-5.91;100.00
68712;BME280;55690;51.566;19.198;2022-12-18T15:40:38;103946.52;;;-5.73;100.00
68712;BME280;55690;51.566;19.198;2022-12-18T15:44:40;103951.05;;;-5.71;100.00
68712;BME280;55690;51.566;19.198;2022-12-18T15:48:45;103957.10;;;-5.73;100.00
68712;BME280;55690;51.566;19.198;2022-12-18T15:52:51;103958.57;;;-5.80;100.00
68712;BME280;55690;51.566;19.198;2022-12-18T15:56:54;103967.06;;;-5.67;100.00
68712;BME280;55690;51.566;19.198;2022-12-18T16:01:10;103976.83;;;-5.86;100.00
68712;BME280;55690;51.566;19.198;2022-12-18T16:05:15;103984.07;;;-5.82;100.00
68712;BME280;55690;51.566;19.198;2022-12-18T16:09:18;103984.20;;;-5.79;100.00
68712;BME280;55690;51.566;19.198;2022-12-18T16:13:21;103969.47;;;-5.93;100.00
68712;BME280;55690;51.566;19.198;2022-12-18T16:17:25;103955.55;;;-5.89;100.00
68712;BME280;55690;51.566;19.198;2022-12-18T16:21:27;103945.75;;;-6.11;100.00
68712;BME280;55690;51.566;19.198;2022-12-18T16:25:30;103952.63;;;-5.95;100.00
68712;BME280;55690;51.566;19.198;2022-12-18T16:29:33;103956.53;;;-6.25;100.00
68712;BME280;55690;51.566;19.198;2022-12-18T16:33:35;103973.18;;;-6.46;100.00
68712;BME280;55690;51.566;19.198;2022-12-18T16:37:40;103982.98;;;-6.25;100.00
68712;BME280;55690;51.566;19.198;2022-12-18T16:41:43;103990.32;;;-6.38;100.00
68712;BME280;55690;51.566;19.198;2022-12-18T16:45:45;103997.11;;;-6.25;100.00
68712;BME280;55690;51.566;19.198;2022-12-18T16:49:48;103997.25;;;-6.22;100.00
68712;BME280;55690;51.566;19.198;2022-12-18T16:53:54;103984.05;;;-6.40;100.00
68712;BME280;55690;51.566;19.198;2022-12-18T16:57:57;103972.66;;;-6.39;100.00
68712;BME280;55690;51.566;19.198;2022-12-18T17:01:59;103967.27;;;-6.59;100.00
68712;BME280;55690;51.566;19.198;2022-12-18T17:06:06;103979.53;;;-6.42;100.00
68712;BME280;55690;51.566;19.198;2022-12-18T17:10:09;103964.56;;;-6.42;100.00
68712;BME280;55690;51.566;19.198;2022-12-18T17:14:14;103963.71;;;-6.23;100.00
68712;BME280;55690;51.566;19.198;2022-12-18T17:18:18;103949.65;;;-6.22;100.00
68712;BME280;55690;51.566;19.198;2022-12-18T17:22:22;103942.19;;;-6.30;100.00
68712;BME280;55690;51.566;19.198;2022-12-18T17:26:24;103941.97;;;-6.35;100.00
68712;BME280;55690;51.566;19.198;2022-12-18T17:30:26;103939.10;;;-6.40;100.00
68712;BME280;55690;51.566;19.198;2022-12-18T17:34:29;103940.48;;;-6.48;100.00
68712;BME280;55690;51.566;19.198;2022-12-18T17:38:31;103947.05;;;-6.40;100.00
68712;BME280;55690;51.566;19.198;2022-12-18T17:42:33;103953.13;;;-6.23;100.00
68712;BME280;55690;51.566;19.198;2022-12-18T17:46:36;103952.15;;;-6.25;100.00
68712;BME280;55690;51.566;19.198;2022-12-18T17:50:38;103960.16;;;-6.23;100.00
68712;BME280;55690;51.566;19.198;2022-12-18T17:54:41;103965.99;;;-6.30;100.00
68712;BME280;55690;51.566;19.198;2022-12-18T17:58:45;103965.70;;;-6.37;100.00
68712;BME280;55690;51.566;19.198;2022-12-18T18:02:50;103971.66;;;-6.41;100.00
68712;BME280;55690;51.566;19.198;2022-12-18T18:06:53;103922.70;;;-7.07;100.00
68712;BME280;55690;51.566;19.198;2022-12-18T18:10:55;103956.71;;;-6.77;100.00
68712;BME280;55690;51.566;19.198;2022-12-18T18:15:08;103964.19;;;-6.68;100.00
68712;BME280;55690;51.566;19.198;2022-12-18T18:19:19;103951.58;;;-6.74;100.00
68712;BME280;55690;51.566;19.198;2022-12-18T18:23:22;103955.49;;;-6.66;100.00
68712;BME280;55690;51.566;19.198;2022-12-18T18:27:26;103952.25;;;-6.60;100.00
68712;BME280;55690;51.566;19.198;2022-12-18T18:31:31;103960.79;;;-6.47;100.00
68712;BME280;55690;51.566;19.198;2022-12-18T18:35:43;103962.76;;;-6.43;100.00
68712;BME280;55690;51.566;19.198;2022-12-18T18:39:46;103957.40;;;-6.44;100.00
68712;BME280;55690;51.566;19.198;2022-12-18T18:43:48;103960.70;;;-6.67;100.00
68712;BME280;55690;51.566;19.198;2022-12-18T18:47:50;103967.71;;;-6.50;100.00
68712;BME280;55690;51.566;19.198;2022-12-18T18:51:54;103972.85;;;-6.53;100.00
68712;BME280;55690;51.566;19.198;2022-12-18T18:55:57;103972.59;;;-6.95;100.00
68712;BME280;55690;51.566;19.198;2022-12-18T19:00:01;103993.93;;;-6.55;100.00
68712;BME280;55690;51.566;19.198;2022-12-18T19:04:04;104000.41;;;-6.66;100.00
68712;BME280;55690;51.566;19.198;2022-12-18T19:08:08;104007.38;;;-6.68;100.00
68712;BME280;55690;51.566;19.198;2022-12-18T19:12:11;104004.27;;;-6.77;100.00
68712;BME280;55690;51.566;19.198;2022-12-18T19:16:26;104004.73;;;-6.86;100.00
68712;BME280;55690;51.566;19.198;2022-12-18T19:20:29;104013.32;;;-6.90;100.00
68712;BME280;55690;51.566;19.198;2022-12-18T19:24:30;104015.13;;;-6.89;100.00
68712;BME280;55690;51.566;19.198;2022-12-18T19:28:33;104019.60;;;-6.70;100.00
68712;BME280;55690;51.566;19.198;2022-12-18T19:32:36;103998.30;;;-6.73;100.00
68712;BME280;55690;51.566;19.198;2022-12-18T19:36:39;104032.88;;;-6.68;100.00
68712;BME280;55690;51.566;19.198;2022-12-18T19:40:44;104026.39;;;-6.75;100.00
68712;BME280;55690;51.566;19.198;2022-12-18T19:44:46;104019.74;;;-6.85;100.00
68712;BME280;55690;51.566;19.198;2022-12-18T19:48:49;104015.37;;;-6.84;100.00
68712;BME280;55690;51.566;19.198;2022-12-18T19:52:51;104007.05;;;-6.92;100.00
68712;BME280;55690;51.566;19.198;2022-12-18T19:56:53;104016.48;;;-7.15;100.00
68712;BME280;55690;51.566;19.198;2022-12-18T20:23:21;103956.81;;;-6.93;100.00
68712;BME280;55690;51.566;19.198;2022-12-18T20:27:26;103957.69;;;-6.75;100.00
68712;BME280;55690;51.566;19.198;2022-12-18T20:31:28;103958.92;;;-7.04;100.00
68712;BME280;55690;51.566;19.198;2022-12-18T20:35:33;103956.51;;;-6.99;100.00
68712;BME280;55690;51.566;19.198;2022-12-18T20:48:50;103956.66;;;-6.96;100.00
68712;BME280;55690;51.566;19.198;2022-12-18T20:57:21;103945.12;;;-6.98;100.00
68712;BME280;55690;51.566;19.198;2022-12-18T21:01:24;103946.40;;;-7.08;100.00
68712;BME280;55690;51.566;19.198;2022-12-18T21:05:27;103946.55;;;-7.05;100.00
68712;BME280;55690;51.566;19.198;2022-12-18T21:14:00;103939.50;;;-6.87;100.00
68712;BME280;55690;51.566;19.198;2022-12-18T21:18:02;103955.84;;;-6.95;100.00
68712;BME280;55690;51.566;19.198;2022-12-18T21:22:06;103946.78;;;-7.00;100.00
68712;BME280;55690;51.566;19.198;2022-12-18T21:30:39;103946.02;;;-6.98;100.00
68712;BME280;55690;51.566;19.198;2022-12-18T21:35:08;103949.50;;;-6.99;100.00
68712;BME280;55690;51.566;19.198;2022-12-18T21:43:12;103942.92;;;-7.07;100.00
68712;BME280;55690;51.566;19.198;2022-12-18T21:47:42;103952.41;;;-6.93;100.00
68712;BME280;55690;51.566;19.198;2022-12-18T21:51:57;103954.28;;;-6.90;100.00
68712;BME280;55690;51.566;19.198;2022-12-18T21:55:59;103933.91;;;-6.93;100.00
68712;BME280;55690;51.566;19.198;2022-12-18T22:00:01;103946.92;;;-6.97;100.00
68712;BME280;55690;51.566;19.198;2022-12-18T22:04:03;103943.15;;;-7.02;100.00
68712;BME280;55690;51.566;19.198;2022-12-18T22:08:05;103938.45;;;-6.90;100.00
68712;BME280;55690;51.566;19.198;2022-12-18T22:12:08;103940.21;;;-7.09;100.00
68712;BME280;55690;51.566;19.198;2022-12-18T22:16:10;103941.73;;;-6.96;100.00
68712;BME280;55690;51.566;19.198;2022-12-18T22:20:12;103936.63;;;-6.91;100.00
68712;BME280;55690;51.566;19.198;2022-12-18T22:24:19;103943.15;;;-7.02;100.00
68712;BME280;55690;51.566;19.198;2022-12-18T22:28:21;103941.65;;;-6.97;100.00
68712;BME280;55690;51.566;19.198;2022-12-18T22:32:35;103931.14;;;-7.14;100.00
68712;BME280;55690;51.566;19.198;2022-12-18T22:36:39;103933.57;;;-7.00;100.00
68712;BME280;55690;51.566;19.198;2022-12-18T22:40:41;103928.06;;;-7.05;100.00
68712;BME280;55690;51.566;19.198;2022-12-18T22:44:42;103918.23;;;-7.25;100.00
68712;BME280;55690;51.566;19.198;2022-12-18T22:48:44;103903.22;;;-7.26;100.00
68712;BME280;55690;51.566;19.198;2022-12-18T22:52:45;103902.25;;;-7.28;100.00
68712;BME280;55690;51.566;19.198;2022-12-18T22:56:47;103902.32;;;-7.09;100.00
68712;BME280;55690;51.566;19.198;2022-12-18T23:00:49;103900.44;;;-7.12;100.00
68712;BME280;55690;51.566;19.198;2022-12-18T23:04:51;103889.34;;;-7.05;100.00
68712;BME280;55690;51.566;19.198;2022-12-18T23:08:55;103897.35;;;-7.03;100.00
68712;BME280;55690;51.566;19.198;2022-12-18T23:12:58;103891.76;;;-7.09;100.00
68712;BME280;55690;51.566;19.198;2022-12-18T23:17:01;103886.03;;;-7.18;100.00
68712;BME280;55690;51.566;19.198;2022-12-18T23:21:07;103890.02;;;-7.26;100.00
68712;BME280;55690;51.566;19.198;2022-12-18T23:25:10;103885.20;;;-7.17;100.00
68712;BME280;55690;51.566;19.198;2022-12-18T23:29:12;103874.78;;;-7.32;100.00
68712;BME280;55690;51.566;19.198;2022-12-18T23:33:13;103865.73;;;-7.19;100.00
68712;BME280;55690;51.566;19.198;2022-12-18T23:37:15;103876.02;;;-7.43;100.00
68712;BME280;55690;51.566;19.198;2022-12-18T23:41:18;103871.78;;;-7.57;100.00
68712;BME280;55690;51.566;19.198;2022-12-18T23:45:20;103875.39;;;-7.55;100.00
68712;BME280;55690;51.566;19.198;2022-12-18T23:49:22;103874.96;;;-7.47;100.00
68712;BME280;55690;51.566;19.198;2022-12-18T23:53:25;103875.45;;;-7.36;100.00
68712;BME280;55690;51.566;19.198;2022-12-18T23:57:27;103865.45;;;-7.43;100.00
